createdAt,value
2022-08-12T00:00:34.995Z,99932.53
2022-08-12T00:03:21.664Z,100173.13
2022-08-12T00:06:07.420Z,100031.28
2022-08-12T00:08:58.876Z,100045.66
2022-08-12T00:11:44.854Z,100074.91
2022-08-12T00:14:31.912Z,100142.13
2022-08-12T00:17:17.276Z,100119.81
2022-08-12T00:20:02.561Z,100120.22
2022-08-12T00:22:58.730Z,100038.63
2022-08-12T00:26:21.630Z,100139.47
2022-08-12T00:28:50.444Z,100168.22
2022-08-12T00:31:37.319Z,100138.06
2022-08-12T00:34:22.820Z,100098.19
2022-08-12T00:37:13.189Z,100051.28
2022-08-12T00:39:59.359Z,100127.31
2022-08-12T00:42:26.369Z,100105.41
2022-08-12T00:44:54.667Z,99731.56
2022-08-12T00:47:25.907Z,100149.59
2022-08-12T00:49:54.532Z,100045.72
2022-08-12T00:52:22.718Z,100110.16
2022-08-12T00:54:52.493Z,100160.38
2022-08-12T00:57:22.002Z,99929.78
2022-08-12T00:59:50.630Z,99911.78
2022-08-12T01:02:24.892Z,99991.81
2022-08-12T01:05:13.916Z,100075.94
2022-08-12T01:08:04.869Z,99841.06
2022-08-12T01:10:51.410Z,100128.97
2022-08-12T01:13:22.220Z,100147.44
2022-08-12T01:15:51.702Z,100020.34
2022-08-12T01:18:22.154Z,100032.38
2022-08-12T01:20:57.114Z,99790.53
2022-08-12T01:23:36.420Z,99817.47
2022-08-12T01:26:06.807Z,100166.88
2022-08-12T01:28:35.433Z,100114.72
2022-08-12T01:31:05.896Z,100152.13
2022-08-12T01:33:39.280Z,100103.75
2022-08-12T01:36:08.999Z,100111.63
2022-08-12T01:38:38.027Z,100099.28
2022-08-12T01:41:07.907Z,100135.69
2022-08-12T01:43:36.160Z,100108.59
2022-08-12T01:46:08.035Z,100012.19
2022-08-12T01:48:52.031Z,99862.03
2022-08-12T01:52:15.438Z,100047.97
2022-08-12T01:54:20.069Z,100020.91
2022-08-12T01:56:52.369Z,99953.06
2022-08-12T01:59:42.802Z,100116.84
2022-08-12T02:17:55.901Z,100122.22
2022-08-12T02:20:15.558Z,100055.16
2022-08-12T02:22:44.974Z,100058.16
2022-08-12T02:25:15.718Z,100018.44
2022-08-12T02:27:49.911Z,99790.34
2022-08-12T02:30:19.928Z,100085.06
2022-08-12T02:32:52.042Z,100119.38
2022-08-12T02:35:21.166Z,99907.19
2022-08-12T02:37:50.182Z,100131.22
2022-08-12T02:40:18.793Z,100249.41
2022-08-12T02:42:54.996Z,100145.00
2022-08-12T02:45:26.107Z,100058.31
2022-08-12T02:48:00.698Z,100148.38
2022-08-12T02:50:30.371Z,100164.91
2022-08-12T02:52:58.243Z,100147.81
2022-08-12T02:55:33.930Z,100154.59
2022-08-12T02:58:06.713Z,100208.69
2022-08-12T03:00:37.764Z,99883.00
2022-08-12T03:03:08.931Z,99865.75
2022-08-12T03:05:44.090Z,99902.00
2022-08-12T03:08:31.594Z,100196.91
2022-08-12T03:11:03.504Z,100028.47
2022-08-12T03:13:33.648Z,100047.75
2022-08-12T03:16:02.251Z,99833.38
2022-08-12T03:18:32.580Z,100057.31
2022-08-12T03:21:01.252Z,100165.94
2022-08-12T03:23:31.080Z,100172.28
2022-08-12T03:26:01.025Z,100213.38
2022-08-12T03:29:02.048Z,99928.28
2022-08-12T03:31:32.478Z,99822.44
2022-08-12T03:34:03.595Z,99993.25
2022-08-12T03:36:33.616Z,100066.31
2022-08-12T03:39:16.384Z,99944.81
2022-08-12T03:41:49.533Z,99856.69
2022-08-12T03:44:36.230Z,100223.97
2022-08-12T03:47:23.363Z,100074.22
2022-08-12T03:50:11.620Z,100151.41
2022-08-12T03:52:56.726Z,100174.22
2022-08-12T03:55:42.544Z,100100.84
2022-08-12T03:58:27.688Z,100089.09
2022-08-12T04:00:55.704Z,100191.06
2022-08-12T04:03:41.183Z,100089.25
2022-08-12T04:06:11.407Z,99885.88
2022-08-12T04:08:39.526Z,99848.28
2022-08-12T04:11:28.016Z,100168.22
2022-08-12T04:14:07.040Z,100035.13
2022-08-12T04:16:36.254Z,100104.94
2022-08-12T04:19:04.222Z,99816.59
2022-08-12T04:21:34.062Z,100187.91
2022-08-12T04:24:02.370Z,100050.56
2022-08-12T04:26:30.518Z,100072.72
2022-08-12T04:28:59.145Z,99965.31
2022-08-12T04:31:33.855Z,100072.34
2022-08-12T04:34:02.739Z,99925.59
2022-08-12T04:36:31.061Z,99988.56
2022-08-12T04:39:00.544Z,99816.06
2022-08-12T04:41:28.792Z,100212.09
2022-08-12T04:44:02.116Z,100034.44
2022-08-12T04:46:33.604Z,100018.13
2022-08-12T04:49:03.631Z,100071.69
2022-08-12T04:51:31.560Z,100157.38
2022-08-12T04:54:02.263Z,100080.34
2022-08-12T04:56:30.583Z,99925.72
2022-08-12T04:59:04.061Z,100135.22
2022-08-12T05:01:32.811Z,100197.78
2022-08-12T05:04:02.852Z,100083.66
2022-08-12T05:11:53.897Z,100097.19
2022-08-12T05:14:22.430Z,100161.41
2022-08-12T05:16:50.563Z,100162.91
2022-08-12T05:19:22.810Z,100159.16
2022-08-12T05:21:50.992Z,100157.13
2022-08-12T05:24:18.840Z,100161.34
2022-08-12T05:26:47.233Z,100155.91
2022-08-12T05:30:08.198Z,100158.47
2022-08-12T05:32:06.233Z,100156.63
2022-08-12T05:34:36.466Z,100155.75
2022-08-12T05:37:04.987Z,100159.13
2022-08-12T05:39:33.495Z,100165.16
2022-08-12T05:42:01.593Z,100171.22
2022-08-12T05:44:34.742Z,100164.88
2022-08-12T05:47:02.705Z,100168.75
2022-08-12T05:49:44.588Z,100163.19
2022-08-12T05:52:12.639Z,100165.88
2022-08-12T05:54:57.218Z,100176.47
2022-08-12T05:57:25.905Z,100167.75
2022-08-12T05:59:55.165Z,100155.19
2022-08-12T06:02:23.092Z,100166.91
2022-08-12T06:04:50.985Z,100166.38
2022-08-12T06:07:59.408Z,100169.84
2022-08-12T06:10:07.598Z,100169.81
2022-08-12T06:12:35.492Z,100173.28
2022-08-12T06:15:05.351Z,100174.28
2022-08-12T06:17:33.203Z,100175.81
2022-08-12T06:20:28.036Z,100172.28
2022-08-12T06:22:48.979Z,100169.25
2022-08-12T06:25:21.575Z,100163.22
2022-08-12T06:28:06.389Z,100166.53
2022-08-12T06:30:38.949Z,100162.53
2022-08-12T06:33:21.526Z,100164.09
2022-08-12T06:35:51.473Z,100145.19
2022-08-12T06:38:20.859Z,100177.13
2022-08-12T06:41:08.595Z,100166.50
2022-08-12T06:44:04.298Z,100165.78
2022-08-12T06:46:26.617Z,100154.66
2022-08-12T06:48:57.574Z,100129.91
2022-08-12T06:51:25.915Z,100155.66
2022-08-12T06:53:54.071Z,100166.75
2022-08-12T06:56:30.477Z,100163.19
2022-08-12T06:59:08.749Z,100165.72
2022-08-12T07:01:38.527Z,100140.69
2022-08-12T07:04:26.457Z,100149.88
2022-08-12T07:06:57.399Z,100139.19
2022-08-12T07:10:03.624Z,100163.19
2022-08-12T07:12:17.018Z,100163.22
2022-08-12T07:14:48.947Z,100145.31
2022-08-12T07:17:18.437Z,100164.50
2022-08-12T07:19:46.860Z,100162.16
2022-08-12T07:22:17.997Z,100162.72
2022-08-12T07:25:07.626Z,100166.22
2022-08-12T07:27:40.788Z,100165.00
2022-08-12T07:30:10.923Z,100174.88
2022-08-12T07:32:41.041Z,100177.06
2022-08-12T07:35:09.754Z,100173.66
2022-08-12T07:37:41.735Z,100170.78
2022-08-12T07:40:12.182Z,100175.31
2022-08-12T07:42:44.137Z,100171.50
2022-08-12T07:45:12.333Z,100159.91
2022-08-12T07:47:43.454Z,100174.78
2022-08-12T07:50:11.808Z,100139.78
2022-08-12T07:52:43.262Z,100131.97
2022-08-12T07:55:11.451Z,100145.56
2022-08-12T07:57:49.803Z,100169.34
2022-08-12T08:00:18.392Z,100163.72
2022-08-12T08:02:54.598Z,100172.50
2022-08-12T08:05:23.489Z,100163.28
2022-08-12T08:07:53.475Z,100174.63
2022-08-12T08:10:21.715Z,100172.66
2022-08-12T08:12:54.399Z,100177.75
2022-08-12T08:15:38.612Z,100143.28
2022-08-12T08:18:18.419Z,100129.22
2022-08-12T08:20:54.795Z,100174.53
2022-08-12T08:23:34.994Z,100179.63
2022-08-12T08:26:05.600Z,100172.28
2022-08-12T08:28:36.571Z,100172.16
2022-08-12T08:31:04.692Z,100172.84
2022-08-12T08:34:05.128Z,100179.19
2022-08-12T08:36:24.076Z,100174.09
2022-08-12T08:38:57.808Z,100173.91
2022-08-12T08:42:13.922Z,100160.56
2022-08-12T08:44:32.515Z,100176.66
2022-08-12T08:49:29.566Z,100175.03
2022-08-12T08:54:26.922Z,100167.53
2022-08-12T08:56:54.904Z,100137.00
2022-08-12T08:59:25.070Z,100179.78
2022-08-12T09:01:53.132Z,100171.97
2022-08-12T09:05:13.564Z,100142.00
2022-08-12T09:07:16.538Z,100163.69
2022-08-12T09:12:54.328Z,100168.94
2022-08-12T09:15:34.906Z,100168.41
2022-08-12T09:18:08.426Z,100179.34
2022-08-12T09:20:37.392Z,100158.25
2022-08-12T09:23:59.321Z,100167.50
2022-08-12T09:25:56.833Z,100180.50
2022-08-12T09:28:30.844Z,100160.41
2022-08-12T09:30:59.843Z,100168.94
2022-08-12T09:34:28.353Z,100160.88
2022-08-12T09:36:31.441Z,100144.38
2022-08-12T09:40:08.126Z,100150.78
2022-08-12T09:42:39.058Z,100150.34
2022-08-12T09:46:05.208Z,100144.19
2022-08-12T09:48:19.771Z,100121.72
2022-08-12T09:50:52.000Z,100150.66
2022-08-12T09:53:36.399Z,100153.47
2022-08-12T09:56:59.023Z,100147.66
2022-08-12T09:59:02.886Z,100144.91
2022-08-12T10:01:35.459Z,100138.31
2022-08-12T10:04:20.567Z,100136.47
2022-08-12T10:06:55.079Z,100136.53
2022-08-12T10:09:28.678Z,100137.78
2022-08-12T10:12:53.558Z,100129.59
2022-08-12T10:16:01.540Z,100131.25
2022-08-12T10:20:44.761Z,100124.94
2022-08-12T10:23:12.900Z,100112.25
2022-08-12T10:26:35.547Z,100106.47
2022-08-12T10:30:01.453Z,100113.19
2022-08-12T10:32:21.783Z,100112.78
2022-08-12T10:34:41.196Z,100111.63
2022-08-12T10:38:07.392Z,100103.94
2022-08-12T10:40:15.755Z,100086.81
2022-08-12T10:43:05.591Z,100088.50
2022-08-12T10:45:35.743Z,100088.38
2022-08-12T10:48:20.354Z,100081.72
2022-08-12T10:50:58.381Z,100074.34
2022-08-12T10:53:45.823Z,100070.22
2022-08-12T10:56:15.361Z,100070.84
2022-08-12T10:58:46.884Z,100069.50
2022-08-12T11:01:26.029Z,100083.56
2022-08-12T11:04:32.103Z,100063.59
2022-08-12T11:07:06.646Z,100066.22
2022-08-12T11:09:59.753Z,100059.13
2022-08-12T11:12:55.609Z,100049.13
2022-08-12T11:15:20.649Z,100043.75
2022-08-12T11:17:55.911Z,100036.00
2022-08-12T11:20:30.951Z,100032.69
2022-08-12T11:22:59.682Z,100013.16
2022-08-12T11:25:56.763Z,100039.56
2022-08-12T11:28:16.151Z,100037.69
2022-08-12T11:30:44.192Z,100030.53
2022-08-12T11:33:24.347Z,100022.63
2022-08-12T11:36:14.654Z,100028.25
2022-08-12T11:38:42.882Z,100023.28
2022-08-12T11:41:27.910Z,100013.44
2022-08-12T11:43:59.315Z,100005.00
2022-08-12T11:46:27.239Z,100004.59
2022-08-12T11:48:59.748Z,99998.53
2022-08-12T11:51:27.549Z,99993.63
2022-08-12T11:54:04.637Z,99992.19
2022-08-12T11:56:38.487Z,99985.03
2022-08-12T12:02:05.197Z,99994.66
2022-08-12T12:04:35.238Z,99993.88
2022-08-12T12:07:07.579Z,99996.78
2022-08-12T12:09:52.814Z,99994.19
2022-08-12T12:12:22.452Z,100000.44
2022-08-12T12:14:54.125Z,100000.34
2022-08-12T12:17:22.223Z,99982.41
2022-08-12T12:19:53.212Z,99990.00
2022-08-12T12:22:23.422Z,99987.91
2022-08-12T12:24:54.981Z,99982.47
2022-08-12T12:28:04.792Z,99977.41
2022-08-12T12:30:18.623Z,99962.59
2022-08-12T12:32:54.797Z,99953.22
2022-08-12T12:36:16.441Z,99964.28
2022-08-12T12:38:12.971Z,99962.47
2022-08-12T12:40:41.565Z,99952.25
2022-08-12T12:43:12.283Z,99952.63
2022-08-12T12:45:44.066Z,99928.47
2022-08-12T12:48:14.992Z,99942.25
2022-08-12T12:50:51.679Z,99913.16
2022-08-12T12:54:06.839Z,99939.38
2022-08-12T12:56:15.475Z,99939.91
2022-08-12T12:58:44.036Z,99925.09
2022-08-12T13:01:26.663Z,99931.88
2022-08-12T13:04:01.687Z,99927.84
2022-08-12T13:06:32.483Z,99923.59
2022-08-12T13:09:03.777Z,99919.53
2022-08-12T13:11:41.692Z,99916.47
2022-08-12T13:14:29.064Z,99913.06
2022-08-12T13:17:02.688Z,99906.41
2022-08-12T13:19:37.637Z,99918.97
2022-08-12T13:22:23.833Z,99911.13
2022-08-12T13:24:56.191Z,99881.59
2022-08-12T13:27:34.374Z,99914.63
2022-08-12T13:30:07.038Z,99876.19
2022-08-12T13:32:39.320Z,99901.84
2022-08-12T13:35:20.285Z,99880.22
2022-08-12T13:37:59.306Z,99904.06
2022-08-12T13:40:32.325Z,99899.50
2022-08-12T13:43:02.054Z,99901.72
2022-08-12T13:45:31.091Z,99904.44
2022-08-12T13:48:02.026Z,99907.81
2022-08-12T13:50:32.783Z,99883.66
2022-08-12T13:53:06.435Z,99902.72
2022-08-12T13:56:01.371Z,99900.34
2022-08-12T13:58:30.775Z,99858.84
2022-08-12T14:01:05.947Z,99887.94
2022-08-12T14:03:49.931Z,99882.81
2022-08-12T14:06:19.819Z,99891.47
2022-08-12T14:08:49.645Z,99882.31
2022-08-12T14:11:18.242Z,99883.81
2022-08-12T14:14:04.082Z,99871.63
2022-08-12T14:16:48.673Z,99876.34
2022-08-12T14:19:24.241Z,99876.34
2022-08-12T14:22:01.139Z,99869.56
2022-08-12T14:24:40.333Z,99866.84
2022-08-12T14:27:10.288Z,99853.03
2022-08-12T14:30:05.591Z,99873.97
2022-08-12T14:32:35.537Z,99867.16
2022-08-12T14:35:05.217Z,99867.16
2022-08-12T14:37:56.642Z,99861.03
2022-08-12T14:40:27.652Z,99860.19
2022-08-12T14:42:57.089Z,99860.34
2022-08-12T14:45:45.326Z,99858.13
2022-08-12T14:48:15.147Z,99862.56
2022-08-12T14:51:02.847Z,99868.00
2022-08-12T14:59:55.729Z,99852.22
2022-08-12T15:02:21.100Z,99857.81
2022-08-12T15:04:59.128Z,99831.09
2022-08-12T15:07:43.796Z,99845.53
2022-08-12T15:10:25.412Z,99877.88
2022-08-12T15:13:07.292Z,99860.34
2022-08-12T15:15:37.532Z,99861.69
2022-08-12T15:18:12.644Z,99858.25
2022-08-12T15:20:42.612Z,99855.38
2022-08-12T15:23:17.648Z,99855.00
2022-08-12T15:25:49.958Z,99847.19
2022-08-12T15:28:33.360Z,99848.03
2022-08-12T15:31:02.494Z,99840.72
2022-08-12T15:33:44.813Z,99834.25
2022-08-12T15:36:14.184Z,99830.72
2022-08-12T15:38:47.209Z,99844.97
2022-08-12T15:41:16.466Z,99826.44
2022-08-12T15:44:17.056Z,99805.19
2022-08-12T15:46:37.392Z,99845.81
2022-08-12T15:49:16.733Z,99832.53
2022-08-12T15:51:59.627Z,99833.41
2022-08-12T15:54:34.639Z,99828.84
2022-08-12T15:57:08.379Z,99830.53
2022-08-12T16:00:00.046Z,99829.00
2022-08-12T16:02:29.569Z,99831.16
2022-08-12T16:04:58.705Z,99840.16
2022-08-12T16:07:31.121Z,99834.50
2022-08-12T16:10:07.083Z,99837.00
2022-08-12T16:12:43.152Z,99828.66
2022-08-12T16:15:13.670Z,99830.72
2022-08-12T16:18:17.860Z,99830.72
2022-08-12T16:20:33.983Z,99833.38
2022-08-12T16:23:04.444Z,99822.31
2022-08-12T16:26:05.128Z,99819.75
2022-08-12T16:28:33.844Z,99826.88
2022-08-12T16:31:03.437Z,99818.22
2022-08-12T16:33:36.054Z,99812.69
2022-08-12T16:36:25.575Z,99813.72
2022-08-12T16:38:54.567Z,99804.34
2022-08-12T16:41:23.400Z,99767.19
2022-08-12T16:43:53.436Z,99813.28
2022-08-12T16:46:32.237Z,99803.94
2022-08-12T16:49:04.309Z,99775.22
2022-08-12T16:51:40.444Z,99806.91
2022-08-12T16:54:12.775Z,99804.69
2022-08-12T16:56:50.753Z,99804.81
2022-08-12T16:59:23.063Z,99809.13
2022-08-12T17:01:54.027Z,99801.59
2022-08-12T17:04:24.145Z,99811.91
2022-08-12T17:06:52.671Z,99789.19
2022-08-12T17:09:20.843Z,99800.16
2022-08-12T17:11:49.258Z,99804.50
2022-08-12T17:14:23.061Z,99800.78
2022-08-12T17:16:55.421Z,99765.91
2022-08-12T17:20:16.919Z,99787.81
2022-08-12T17:22:15.445Z,99787.47
2022-08-12T17:24:54.427Z,99804.06
2022-08-12T17:27:23.666Z,99807.81
2022-08-12T17:30:00.987Z,99802.72
2022-08-12T17:32:36.898Z,99787.31
2022-08-12T17:35:30.243Z,99809.63
2022-08-12T17:38:06.331Z,99808.53
2022-08-12T17:40:37.081Z,99807.13
2022-08-12T17:43:55.558Z,99815.56
2022-08-12T17:45:59.097Z,99828.09
2022-08-12T17:48:34.866Z,99816.00
2022-08-12T17:51:15.640Z,99808.09
2022-08-12T17:54:11.004Z,99808.44
2022-08-12T17:56:36.882Z,99816.41
2022-08-12T17:59:07.394Z,99815.31
2022-08-12T18:01:36.134Z,99818.47
2022-08-12T18:04:22.840Z,99818.38
2022-08-12T18:06:52.160Z,99827.09
2022-08-12T18:09:21.285Z,99831.97
2022-08-12T18:12:08.100Z,99819.31
2022-08-12T18:14:36.719Z,99827.88
2022-08-12T18:17:08.584Z,99829.03
2022-08-12T18:20:06.134Z,99829.03
2022-08-12T18:22:31.329Z,99835.59
2022-08-12T18:25:04.011Z,99846.00
2022-08-12T18:27:42.164Z,99847.56
2022-08-12T18:30:16.517Z,99839.88
2022-08-12T18:32:58.906Z,99849.44
2022-08-12T18:35:46.869Z,99852.56
2022-08-12T18:38:20.387Z,99844.06
2022-08-12T18:41:09.558Z,99849.91
2022-08-12T18:43:57.632Z,99856.69
2022-08-12T18:46:29.894Z,99853.44
2022-08-12T18:49:16.990Z,99859.97
2022-08-12T18:51:54.852Z,99880.44
2022-08-12T18:54:34.862Z,99793.91
2022-08-12T18:57:19.260Z,99845.88
2022-08-12T18:59:59.756Z,99863.50
2022-08-12T19:02:33.874Z,99867.00
2022-08-12T19:05:09.311Z,99866.84
2022-08-12T19:07:49.785Z,99876.63
2022-08-12T19:10:28.931Z,99872.91
2022-08-12T19:13:21.167Z,99869.31
2022-08-12T19:15:53.397Z,99877.97
2022-08-12T19:18:22.023Z,99881.34
2022-08-12T19:20:50.648Z,99881.97
2022-08-12T19:23:22.225Z,99888.91
2022-08-12T19:26:01.024Z,99885.88
2022-08-12T19:31:17.474Z,99893.88
2022-08-12T19:34:00.933Z,99889.38
2022-08-12T19:36:34.646Z,99888.31
2022-08-12T19:39:14.754Z,99896.78
2022-08-12T19:42:00.416Z,99894.59
2022-08-12T19:44:29.864Z,99897.13
2022-08-12T19:47:02.664Z,99897.63
2022-08-12T19:49:30.473Z,99897.41
2022-08-12T19:51:59.742Z,99903.28
2022-08-12T19:54:30.299Z,99907.63
2022-08-12T19:56:59.758Z,99908.00
2022-08-12T19:59:42.900Z,99911.03
2022-08-12T20:02:33.098Z,99910.97
2022-08-12T20:06:03.100Z,99915.13
2022-08-12T20:07:59.326Z,99910.34
2022-08-12T20:10:35.339Z,99914.66
2022-08-12T20:13:17.591Z,99898.88
2022-08-12T20:15:49.819Z,99900.44
2022-08-12T20:18:44.641Z,99909.50
2022-08-12T20:21:14.757Z,99916.47
2022-08-12T20:24:00.362Z,99904.72
2022-08-12T20:26:30.701Z,99912.28
2022-08-12T20:28:59.813Z,99908.50
2022-08-12T20:31:31.624Z,99910.81
2022-08-12T20:34:00.127Z,99914.84
2022-08-12T20:36:41.538Z,99910.19
2022-08-12T20:39:51.158Z,99910.41
2022-08-12T20:42:01.900Z,99916.25
2022-08-12T20:44:30.749Z,99913.03
2022-08-12T20:47:11.857Z,99915.88
2022-08-12T20:49:55.592Z,99910.94
2022-08-12T20:52:30.085Z,99917.50
2022-08-12T20:54:58.371Z,99916.03
2022-08-12T20:57:37.574Z,99897.53
2022-08-12T21:00:16.595Z,99919.44
2022-08-12T21:02:50.159Z,99922.34
2022-08-12T21:06:09.501Z,99921.63
2022-08-12T21:08:26.631Z,99917.53
2022-08-12T21:10:59.199Z,99910.69
2022-08-12T21:13:29.456Z,99919.72
2022-08-12T21:16:09.876Z,99917.38
2022-08-12T21:18:38.362Z,99916.97
2022-08-12T21:21:06.761Z,99928.53
2022-08-12T21:23:50.981Z,99922.53
2022-08-12T21:26:19.783Z,99928.16
2022-08-12T21:28:58.129Z,99922.28
2022-08-12T21:32:40.110Z,99923.34
2022-08-12T21:34:21.411Z,99927.13
2022-08-12T21:36:53.948Z,99925.63
2022-08-12T21:39:35.325Z,99926.72
2022-08-12T21:42:06.831Z,99894.66
2022-08-12T21:45:45.457Z,99932.03
2022-08-12T21:47:25.364Z,99934.06
2022-08-12T21:50:06.815Z,99934.41
2022-08-12T21:52:36.432Z,99928.38
2022-08-12T21:55:08.097Z,99938.59
2022-08-12T21:57:50.555Z,99939.78
2022-08-12T22:00:32.364Z,99894.63
2022-08-12T22:04:02.061Z,99941.38
2022-08-12T22:06:30.547Z,99937.31
2022-08-12T22:09:15.144Z,99939.44
2022-08-12T22:11:49.158Z,99940.50
2022-08-12T22:14:27.986Z,99922.09
2022-08-12T22:16:57.783Z,99942.78
2022-08-12T22:19:26.760Z,99941.81
2022-08-12T22:21:55.622Z,99951.06
2022-08-12T22:24:25.862Z,99940.53
2022-08-12T22:26:57.086Z,99947.28
2022-08-12T22:29:42.797Z,99947.38
2022-08-12T22:32:13.265Z,99948.69
2022-08-12T22:34:44.545Z,99935.59
2022-08-12T22:37:20.235Z,99943.84
2022-08-12T22:39:49.129Z,99948.25
2022-08-12T22:42:36.072Z,99929.31
2022-08-12T22:45:56.073Z,99943.53
2022-08-12T22:48:26.555Z,99943.91
2022-08-12T22:50:59.358Z,99941.34
2022-08-12T22:53:35.805Z,99943.25
2022-08-12T22:56:06.712Z,99937.56
2022-08-12T22:58:40.297Z,99937.44
2022-08-12T23:01:10.999Z,99944.75
2022-08-12T23:03:49.085Z,99935.00
2022-08-12T23:06:19.944Z,99931.44
2022-08-12T23:08:50.678Z,99874.56
2022-08-12T23:11:23.763Z,99933.28
2022-08-12T23:13:57.021Z,99934.34
2022-08-12T23:16:31.789Z,99897.75
2022-08-12T23:19:10.250Z,99928.09
2022-08-12T23:22:04.943Z,99924.56
2022-08-12T23:24:38.386Z,99923.38
2022-08-12T23:27:24.929Z,99925.22
2022-08-12T23:30:18.831Z,99922.88
2022-08-12T23:32:54.732Z,99925.41
2022-08-12T23:35:53.602Z,99919.00
2022-08-12T23:38:31.068Z,99926.38
2022-08-12T23:41:00.986Z,99924.78
2022-08-12T23:43:38.929Z,99916.84
2022-08-12T23:46:08.540Z,99923.19
2022-08-12T23:48:37.619Z,99919.09
2022-08-12T23:51:21.956Z,99918.31
2022-08-12T23:53:52.917Z,99922.84
2022-08-12T23:56:23.629Z,99924.75
2022-08-12T23:58:52.786Z,99917.22
